createdAt,value
2019-04-07T00:01:40.083Z,16.80
2019-04-07T00:04:09.552Z,16.70
2019-04-07T00:06:39.438Z,16.70
2019-04-07T00:09:09.723Z,16.80
2019-04-07T00:11:39.635Z,16.80
2019-04-07T00:14:09.170Z,16.80
2019-04-07T00:16:40.008Z,16.80
2019-04-07T00:19:09.850Z,16.80
2019-04-07T00:21:39.612Z,16.70
2019-04-07T00:24:09.226Z,16.70
2019-04-07T00:26:39.381Z,16.70
2019-04-07T00:29:09.719Z,16.70
2019-04-07T00:31:39.834Z,16.80
2019-04-07T00:34:09.639Z,16.80
2019-04-07T00:36:39.674Z,16.80
2019-04-07T00:39:09.485Z,16.80
2019-04-07T00:41:38.987Z,16.80
2019-04-07T00:44:08.398Z,16.80
2019-04-07T00:46:37.807Z,16.80
2019-04-07T00:49:07.442Z,16.80
2019-04-07T00:51:37.399Z,16.90
2019-04-07T00:54:13.916Z,16.80
2019-04-07T00:56:43.950Z,16.80
2019-04-07T00:59:27.127Z,16.70
2019-04-07T01:01:56.768Z,16.60
2019-04-07T01:04:26.512Z,16.50
2019-04-07T01:06:56.162Z,16.50
2019-04-07T01:09:26.520Z,16.50
2019-04-07T01:11:55.921Z,16.50
2019-04-07T01:14:25.606Z,16.50
2019-04-07T01:16:56.187Z,16.50
2019-04-07T01:19:25.696Z,16.50
2019-04-07T01:21:55.729Z,16.50
2019-04-07T01:24:25.341Z,16.40
2019-04-07T01:26:55.841Z,16.50
2019-04-07T01:29:25.530Z,16.40
2019-04-07T01:31:55.014Z,16.40
2019-04-07T01:34:25.004Z,16.40
2019-04-07T01:36:54.596Z,16.40
2019-04-07T01:39:25.665Z,16.40
2019-04-07T01:41:57.138Z,16.40
2019-04-07T01:44:28.401Z,16.40
2019-04-07T01:47:05.643Z,16.40
2019-04-07T01:49:46.569Z,16.50
2019-04-07T01:52:21.071Z,16.40
2019-04-07T01:55:10.115Z,16.50
2019-04-07T01:57:57.507Z,16.50
2019-04-07T02:00:31.658Z,16.50
2019-04-07T02:03:03.380Z,16.40
2019-04-07T02:05:58.694Z,16.40
2019-04-07T02:08:40.248Z,16.40
2019-04-07T02:11:21.134Z,16.40
2019-04-07T02:14:08.674Z,16.40
2019-04-07T02:16:51.560Z,16.40
2019-04-07T02:19:26.284Z,16.30
2019-04-07T02:21:58.270Z,16.30
2019-04-07T02:24:38.947Z,16.30
2019-04-07T02:27:10.671Z,16.30
2019-04-07T02:29:51.197Z,16.30
2019-04-07T02:32:37.926Z,16.30
2019-04-07T02:35:12.248Z,16.30
2019-04-07T02:37:44.503Z,16.30
2019-04-07T02:40:31.171Z,16.30
2019-04-07T02:43:11.349Z,16.40
2019-04-07T02:45:47.551Z,16.30
2019-04-07T02:48:25.233Z,16.30
2019-04-07T02:51:01.208Z,16.40
2019-04-07T02:53:53.130Z,16.40
2019-04-07T02:56:30.245Z,16.30
2019-04-07T02:59:01.474Z,16.30
2019-04-07T03:01:35.502Z,16.30
2019-04-07T03:04:09.605Z,16.40
2019-04-07T03:06:57.207Z,16.40
2019-04-07T03:09:34.897Z,16.40
2019-04-07T03:12:21.278Z,16.40
2019-04-07T03:15:02.814Z,16.40
2019-04-07T03:17:37.615Z,16.40
2019-04-07T03:20:12.240Z,16.30
2019-04-07T03:23:00.206Z,16.40
2019-04-07T03:25:40.155Z,16.40
2019-04-07T03:28:11.807Z,16.40
2019-04-07T03:30:54.714Z,16.40
2019-04-07T03:33:30.047Z,16.40
2019-04-07T03:36:06.077Z,16.40
2019-04-07T03:38:53.661Z,16.40
2019-04-07T03:41:33.923Z,16.40
2019-04-07T03:44:06.067Z,16.50
2019-04-07T03:46:55.194Z,16.50
2019-04-07T03:49:27.336Z,16.50
2019-04-07T03:52:14.809Z,16.50
2019-04-07T03:54:48.838Z,16.50
2019-04-07T03:57:19.882Z,16.40
2019-04-07T03:59:57.682Z,16.40
2019-04-07T04:02:42.381Z,16.40
2019-04-07T04:05:19.172Z,16.40
2019-04-07T04:07:50.199Z,16.40
2019-04-07T04:10:21.282Z,16.40
2019-04-07T04:12:55.166Z,16.50
2019-04-07T04:15:26.400Z,16.50
2019-04-07T04:18:16.119Z,16.50
2019-04-07T04:20:46.368Z,16.50
2019-04-07T04:23:15.861Z,16.50
2019-04-07T04:25:45.690Z,16.60
2019-04-07T04:28:16.092Z,16.50
2019-04-07T04:30:45.908Z,16.60
2019-04-07T04:33:15.908Z,16.50
2019-04-07T04:35:46.075Z,16.50
2019-04-07T04:38:15.822Z,16.60
2019-04-07T04:40:45.942Z,16.50
2019-04-07T04:43:15.590Z,16.50
2019-04-07T04:45:46.127Z,16.60
2019-04-07T04:48:15.724Z,16.60
2019-04-07T04:50:47.085Z,16.60
2019-04-07T04:53:17.130Z,16.60
2019-04-07T04:55:47.202Z,16.60
2019-04-07T04:58:17.495Z,16.50
2019-04-07T05:00:48.441Z,16.50
2019-04-07T05:03:19.462Z,16.50
2019-04-07T05:05:49.008Z,16.50
2019-04-07T05:08:18.407Z,16.50
2019-04-07T05:10:48.260Z,16.50
2019-04-07T05:13:18.048Z,16.60
2019-04-07T05:15:47.840Z,16.60
2019-04-07T05:18:17.941Z,16.60
2019-04-07T05:20:47.687Z,16.70
2019-04-07T05:23:18.010Z,16.60
2019-04-07T05:25:48.132Z,16.60
2019-04-07T05:28:17.675Z,16.60
2019-04-07T05:30:47.981Z,16.50
2019-04-07T05:33:17.564Z,16.50
2019-04-07T05:35:46.963Z,16.40
2019-04-07T05:38:16.378Z,16.40
2019-04-07T05:40:46.291Z,16.30
2019-04-07T05:43:16.133Z,16.30
2019-04-07T05:45:46.236Z,16.20
2019-04-07T05:48:18.529Z,16.20
2019-04-07T05:50:47.296Z,16.10
2019-04-07T05:53:31.231Z,16.00
2019-04-07T05:56:01.075Z,16.00
2019-04-07T05:58:30.597Z,16.00
2019-04-07T06:01:00.253Z,16.00
2019-04-07T06:03:29.830Z,16.00
2019-04-07T06:05:59.367Z,16.00
2019-04-07T06:08:35.577Z,16.00
2019-04-07T06:11:01.583Z,16.00
2019-04-07T06:13:31.288Z,16.00
2019-04-07T06:16:01.024Z,16.00
2019-04-07T06:18:33.844Z,15.90
2019-04-07T06:21:01.588Z,16.00
2019-04-07T06:23:31.421Z,15.90
2019-04-07T06:26:00.883Z,16.00
2019-04-07T06:28:30.358Z,16.00
2019-04-07T06:31:01.351Z,16.00
2019-04-07T06:33:31.953Z,16.00
2019-04-07T06:36:01.524Z,16.10
2019-04-07T06:38:34.580Z,16.10
2019-04-07T06:41:03.082Z,16.10
2019-04-07T06:43:36.631Z,16.20
2019-04-07T06:46:09.341Z,16.10
2019-04-07T06:48:41.240Z,16.20
2019-04-07T06:51:12.599Z,16.20
2019-04-07T06:53:52.449Z,16.20
2019-04-07T06:56:35.662Z,16.20
2019-04-07T06:59:13.917Z,16.30
2019-04-07T07:01:42.799Z,16.30
2019-04-07T07:04:30.143Z,16.30
2019-04-07T07:07:06.108Z,16.40
2019-04-07T07:09:54.815Z,16.40
2019-04-07T07:12:32.832Z,16.50
2019-04-07T07:15:00.937Z,16.40
2019-04-07T07:17:38.267Z,16.40
2019-04-07T07:20:15.693Z,16.50
2019-04-07T07:22:56.154Z,16.50
2019-04-07T07:25:28.581Z,16.60
2019-04-07T07:27:57.061Z,16.70
2019-04-07T07:30:27.331Z,16.80
2019-04-07T07:32:56.866Z,16.90
2019-04-07T07:35:27.206Z,17.00
2019-04-07T07:37:59.442Z,17.10
2019-04-07T07:40:27.841Z,17.20
2019-04-07T07:42:59.098Z,17.30
2019-04-07T07:45:28.390Z,17.30
2019-04-07T07:47:57.824Z,17.40
2019-04-07T07:50:28.373Z,17.40
2019-04-07T07:52:58.267Z,17.40
2019-04-07T07:55:33.847Z,17.50
2019-04-07T07:58:00.997Z,17.50
2019-04-07T08:00:30.952Z,17.50
2019-04-07T08:03:00.444Z,17.50
2019-04-07T08:05:33.340Z,17.60
2019-04-07T08:08:01.756Z,17.60
2019-04-07T08:10:31.287Z,17.60
2019-04-07T08:13:05.110Z,17.60
2019-04-07T08:15:33.330Z,17.70
2019-04-07T08:18:06.980Z,17.70
2019-04-07T08:20:34.867Z,17.70
2019-04-07T08:23:04.718Z,17.70
2019-04-07T08:25:34.811Z,17.70
2019-04-07T08:28:04.687Z,17.80
2019-04-07T08:30:34.293Z,17.80
2019-04-07T08:33:03.821Z,17.90
2019-04-07T08:35:37.675Z,17.90
2019-04-07T08:38:04.634Z,17.90
2019-04-07T08:40:36.538Z,18.00
2019-04-07T08:43:21.191Z,18.00
2019-04-07T08:45:51.428Z,18.00
2019-04-07T08:48:21.595Z,18.10
2019-04-07T08:50:51.805Z,18.10
2019-04-07T08:53:21.593Z,18.10
2019-04-07T08:55:54.250Z,18.10
2019-04-07T08:58:27.174Z,18.10
2019-04-07T09:00:55.147Z,18.20
2019-04-07T09:03:24.631Z,18.20
2019-04-07T09:05:56.484Z,18.20
2019-04-07T09:08:26.054Z,18.30
2019-04-07T09:11:00.456Z,18.30
2019-04-07T09:13:33.118Z,18.30
2019-04-07T09:16:20.753Z,18.30
2019-04-07T09:19:01.789Z,18.40
2019-04-07T09:21:49.503Z,18.30
2019-04-07T09:24:32.746Z,18.40
2019-04-07T09:27:11.317Z,18.50
2019-04-07T09:29:46.053Z,18.50
2019-04-07T09:32:23.730Z,18.60
2019-04-07T09:34:56.123Z,18.70
2019-04-07T09:37:36.704Z,18.70
2019-04-07T09:40:18.553Z,18.70
2019-04-07T09:42:59.249Z,18.80
2019-04-07T09:45:44.774Z,18.80
2019-04-07T09:48:25.518Z,18.80
2019-04-07T09:51:04.155Z,18.80
2019-04-07T09:53:50.250Z,18.80
2019-04-07T09:56:29.919Z,18.90
2019-04-07T09:59:19.074Z,18.80
2019-04-07T10:02:08.214Z,18.80
2019-04-07T10:04:42.598Z,18.90
2019-04-07T10:07:30.509Z,19.00
2019-04-07T10:10:10.779Z,19.10
2019-04-07T10:12:46.454Z,19.10
2019-04-07T10:15:18.788Z,19.10
2019-04-07T10:18:02.065Z,19.10
2019-04-07T10:20:49.161Z,19.10
2019-04-07T10:23:23.226Z,19.10
2019-04-07T10:25:57.683Z,19.10
2019-04-07T10:28:46.166Z,19.20
2019-04-07T10:31:23.569Z,19.20
2019-04-07T10:33:54.736Z,19.20
2019-04-07T10:36:42.501Z,19.20
2019-04-07T10:39:14.259Z,19.20
2019-04-07T10:41:48.290Z,19.20
2019-04-07T10:44:26.399Z,19.30
2019-04-07T10:47:13.873Z,19.30
2019-04-07T10:50:06.199Z,19.20
2019-04-07T10:52:45.963Z,19.30
2019-04-07T10:55:20.635Z,19.30
2019-04-07T10:58:00.771Z,19.30
2019-04-07T11:00:50.985Z,19.30
2019-04-07T11:03:34.179Z,19.30
2019-04-07T11:06:14.882Z,19.30
2019-04-07T11:08:55.986Z,19.30
2019-04-07T11:11:47.866Z,19.30
2019-04-07T11:14:18.457Z,19.30
2019-04-07T11:17:06.537Z,19.30
2019-04-07T11:19:38.692Z,19.40
2019-04-07T11:22:26.609Z,19.40
2019-04-07T11:25:16.987Z,19.40
2019-04-07T11:27:48.447Z,19.40
2019-04-07T11:30:19.699Z,19.40
2019-04-07T11:32:50.744Z,19.40
2019-04-07T11:35:22.211Z,19.40
2019-04-07T11:37:55.852Z,19.50
2019-04-07T11:40:27.162Z,19.60
2019-04-07T11:42:58.970Z,19.50
2019-04-07T11:45:58.422Z,19.50
2019-04-07T11:48:37.052Z,19.60
2019-04-07T11:54:08.703Z,19.50
2019-04-07T11:56:40.174Z,19.60
2019-04-07T11:59:21.943Z,19.60
2019-04-07T12:01:53.144Z,19.50
2019-04-07T12:04:24.935Z,19.60
2019-04-07T12:07:03.551Z,19.60
2019-04-07T12:09:51.027Z,19.70
2019-04-07T12:12:31.110Z,19.70
2019-04-07T12:15:23.643Z,19.70
2019-04-07T12:17:59.154Z,19.60
2019-04-07T12:20:43.971Z,19.60
2019-04-07T12:23:23.395Z,19.60
2019-04-07T12:26:10.146Z,19.60
2019-04-07T12:28:41.253Z,19.60
2019-04-07T12:31:18.553Z,19.60
2019-04-07T12:33:52.786Z,19.70
2019-04-07T12:36:40.823Z,19.70
2019-04-07T12:39:17.326Z,19.70
2019-04-07T12:41:51.094Z,19.70
2019-04-07T12:44:25.407Z,19.60
2019-04-07T12:46:59.179Z,19.60
2019-04-07T12:49:46.957Z,19.60
2019-04-07T12:52:20.712Z,19.60
2019-04-07T12:55:08.334Z,19.50
2019-04-07T12:57:39.888Z,19.50
2019-04-07T13:00:29.745Z,19.60
2019-04-07T13:03:10.411Z,19.60
2019-04-07T13:05:50.917Z,19.60
2019-04-07T13:08:24.687Z,19.60
2019-04-07T13:10:59.124Z,19.70
2019-04-07T13:13:32.752Z,19.70
2019-04-07T13:19:19.895Z,19.70
2019-04-07T13:21:53.329Z,19.70
2019-04-07T13:24:31.800Z,19.70
2019-04-07T13:27:04.004Z,19.70
2019-04-07T13:29:40.121Z,19.70
2019-04-07T13:32:19.411Z,19.70
2019-04-07T13:34:56.302Z,19.70
2019-04-07T13:37:30.950Z,19.70
2019-04-07T13:40:02.142Z,19.70
2019-04-07T13:42:36.753Z,19.70
2019-04-07T13:45:15.583Z,19.80
2019-04-07T13:50:41.833Z,19.70
2019-04-07T13:53:31.835Z,19.80
2019-04-07T13:56:18.673Z,19.80
2019-04-07T13:59:06.614Z,19.80
2019-04-07T14:01:38.412Z,19.80
2019-04-07T14:04:25.158Z,19.80
2019-04-07T14:07:13.171Z,19.70
2019-04-07T14:09:50.697Z,19.70
2019-04-07T14:12:24.893Z,19.70
2019-04-07T14:15:05.206Z,19.70
2019-04-07T14:17:43.775Z,19.70
2019-04-07T14:20:16.068Z,19.70
2019-04-07T14:22:50.525Z,19.80
2019-04-07T14:25:33.492Z,19.80
2019-04-07T14:28:07.866Z,19.80
2019-04-07T14:30:47.823Z,19.70
2019-04-07T14:36:29.990Z,19.70
2019-04-07T14:39:07.264Z,19.70
2019-04-07T14:41:40.127Z,19.60
2019-04-07T14:44:12.881Z,19.50
2019-04-07T14:46:50.169Z,19.60
2019-04-07T14:49:21.328Z,19.70
2019-04-07T14:52:10.961Z,19.70
2019-04-07T14:54:44.847Z,19.80
2019-04-07T14:57:16.901Z,19.70
2019-04-07T15:00:05.249Z,19.80
2019-04-07T15:02:35.433Z,19.70
2019-04-07T15:05:23.240Z,19.70
2019-04-07T15:07:52.721Z,19.70
2019-04-07T15:10:24.440Z,19.70
2019-04-07T15:12:55.777Z,19.70
2019-04-07T15:15:26.792Z,19.80
2019-04-07T15:17:56.366Z,19.70
2019-04-07T15:20:25.779Z,19.80
2019-04-07T15:22:58.352Z,19.80
2019-04-07T15:25:27.695Z,19.90
2019-04-07T15:27:58.907Z,19.80
2019-04-07T15:30:28.498Z,19.90
2019-04-07T15:33:01.017Z,19.80
2019-04-07T15:35:50.192Z,19.90
2019-04-07T15:38:23.770Z,19.90
2019-04-07T15:40:51.732Z,19.80
2019-04-07T15:43:22.244Z,19.90
2019-04-07T15:45:52.225Z,19.90
2019-04-07T15:48:25.836Z,20.00
2019-04-07T15:50:54.746Z,20.00
2019-04-07T15:53:24.509Z,20.00
2019-04-07T15:56:02.062Z,20.00
2019-04-07T15:58:27.641Z,20.00
2019-04-07T16:00:57.474Z,19.90
2019-04-07T16:03:27.715Z,20.00
2019-04-07T16:05:59.105Z,20.00
2019-04-07T16:08:29.986Z,20.00
2019-04-07T16:11:00.624Z,20.00
2019-04-07T16:13:30.401Z,20.10
2019-04-07T16:15:59.942Z,20.00
2019-04-07T16:18:29.347Z,20.10
2019-04-07T16:20:58.762Z,20.10
2019-04-07T16:23:28.350Z,20.20
2019-04-07T16:25:59.233Z,20.20
2019-04-07T16:28:29.601Z,20.10
2019-04-07T16:30:59.275Z,20.10
2019-04-07T16:33:32.525Z,20.10
2019-04-07T16:36:00.060Z,20.00
2019-04-07T16:38:30.362Z,20.10
2019-04-07T16:41:01.612Z,20.10
2019-04-07T16:43:33.788Z,20.00
2019-04-07T16:46:02.307Z,20.00
2019-04-07T16:48:35.924Z,20.00
2019-04-07T16:51:26.398Z,20.00
2019-04-07T16:53:54.222Z,20.00
2019-04-07T16:56:23.757Z,20.00
2019-04-07T16:58:53.476Z,20.00
2019-04-07T17:01:25.383Z,20.00
2019-04-07T17:03:55.425Z,20.00
2019-04-07T17:06:27.763Z,20.00
2019-04-07T17:08:56.473Z,20.00
2019-04-07T17:11:25.977Z,20.00
2019-04-07T17:13:55.891Z,20.00
2019-04-07T17:16:25.428Z,20.00
2019-04-07T17:18:56.163Z,20.10
2019-04-07T17:21:26.658Z,20.10
2019-04-07T17:23:56.903Z,20.10
2019-04-07T17:26:26.470Z,20.00
2019-04-07T17:28:57.394Z,20.00
2019-04-07T17:31:29.901Z,20.00
2019-04-07T17:33:58.639Z,20.00
2019-04-07T17:36:28.245Z,20.00
2019-04-07T17:39:09.623Z,20.00
2019-04-07T17:41:39.353Z,20.10
2019-04-07T17:44:24.492Z,19.90
2019-04-07T17:46:58.896Z,20.00
2019-04-07T17:49:39.330Z,19.90
2019-04-07T17:52:11.203Z,19.90
2019-04-07T17:54:54.027Z,19.90
2019-04-07T17:57:34.860Z,19.90
2019-04-07T18:00:16.494Z,19.80
2019-04-07T18:02:53.608Z,19.80
2019-04-07T18:05:27.950Z,19.80
2019-04-07T18:08:15.828Z,19.80
2019-04-07T18:10:50.746Z,19.80
2019-04-07T18:13:26.004Z,19.80
2019-04-07T18:15:58.250Z,19.70
2019-04-07T18:18:47.620Z,19.70
2019-04-07T18:21:25.216Z,19.80
2019-04-07T18:24:02.368Z,19.70
2019-04-07T18:26:37.348Z,19.70
2019-04-07T18:29:25.683Z,19.70
2019-04-07T18:32:11.230Z,19.70
2019-04-07T18:35:01.234Z,19.70
2019-04-07T18:37:48.587Z,19.70
2019-04-07T18:40:29.516Z,19.60
2019-04-07T18:43:19.245Z,19.60
2019-04-07T18:46:08.416Z,19.60
2019-04-07T18:48:40.233Z,19.60
2019-04-07T18:51:13.875Z,19.60
2019-04-07T18:54:04.095Z,19.60
2019-04-07T18:56:34.932Z,19.60
2019-04-07T18:59:26.811Z,19.60
2019-04-07T19:02:16.242Z,19.60
2019-04-07T19:04:49.186Z,19.50
2019-04-07T19:07:39.898Z,19.30
2019-04-07T19:10:22.877Z,19.30
2019-04-07T19:13:01.915Z,19.20
2019-04-07T19:15:26.030Z,19.20
2019-04-07T19:18:02.168Z,19.10
2019-04-07T19:20:34.153Z,19.20
2019-04-07T19:23:11.307Z,19.20
2019-04-07T19:25:58.867Z,19.20
2019-04-07T19:28:42.330Z,19.20
2019-04-07T19:31:19.574Z,19.20
2019-04-07T19:33:50.797Z,19.20
2019-04-07T19:36:28.092Z,19.30
2019-04-07T19:39:09.058Z,19.20
2019-04-07T19:41:56.468Z,19.20
2019-04-07T19:44:37.103Z,19.10
2019-04-07T19:47:03.161Z,19.10
2019-04-07T19:49:36.803Z,19.10
2019-04-07T19:52:09.334Z,19.10
2019-04-07T19:54:52.936Z,19.00
2019-04-07T19:57:24.045Z,19.00
2019-04-07T19:59:57.944Z,19.00
2019-04-07T20:02:45.513Z,19.00
2019-04-07T20:05:23.333Z,19.00
2019-04-07T20:07:59.333Z,19.00
2019-04-07T20:10:32.622Z,18.90
2019-04-07T20:13:09.513Z,18.90
2019-04-07T20:15:58.064Z,18.90
2019-04-07T20:18:46.018Z,18.90
2019-04-07T20:21:39.056Z,18.80
2019-04-07T20:24:21.768Z,18.80
2019-04-07T20:27:09.456Z,18.80
2019-04-07T20:29:43.756Z,18.70
2019-04-07T20:32:25.196Z,18.70
2019-04-07T20:35:12.299Z,18.70
2019-04-07T20:37:58.346Z,18.70
2019-04-07T20:40:45.572Z,18.70
2019-04-07T20:43:23.569Z,18.70
2019-04-07T20:46:06.905Z,18.60
2019-04-07T20:48:41.585Z,18.60
2019-04-07T20:51:29.602Z,18.60
2019-04-07T20:54:06.387Z,18.60
2019-04-07T20:56:49.896Z,18.60
2019-04-07T20:59:25.315Z,18.60
2019-04-07T21:02:08.628Z,18.60
2019-04-07T21:04:53.081Z,18.50
2019-04-07T21:07:35.479Z,18.50
2019-04-07T21:10:11.237Z,18.50
2019-04-07T21:12:47.062Z,18.50
2019-04-07T21:15:30.969Z,18.50
2019-04-07T21:18:11.008Z,18.40
2019-04-07T21:20:44.644Z,18.40
2019-04-07T21:23:19.525Z,18.40
2019-04-07T21:26:07.957Z,18.40
2019-04-07T21:28:48.345Z,18.40
2019-04-07T21:31:22.613Z,18.40
2019-04-07T21:34:10.300Z,18.30
2019-04-07T21:36:41.777Z,18.20
2019-04-07T21:39:21.660Z,18.30
2019-04-07T21:42:00.315Z,18.30
2019-04-07T21:44:40.071Z,18.40
2019-04-07T21:47:20.443Z,18.40
2019-04-07T21:49:54.178Z,18.30
2019-04-07T21:52:28.163Z,18.30
2019-04-07T21:55:01.891Z,18.30
2019-04-07T21:57:36.476Z,18.40
2019-04-07T22:00:27.048Z,18.50
2019-04-07T22:03:17.061Z,18.60
2019-04-07T22:05:54.523Z,18.60
2019-04-07T22:08:25.275Z,18.60
2019-04-07T22:10:55.384Z,18.60
2019-04-07T22:13:25.833Z,18.60
2019-04-07T22:15:59.323Z,18.60
2019-04-07T22:18:26.823Z,18.50
2019-04-07T22:20:57.045Z,18.50
2019-04-07T22:23:29.592Z,18.40
2019-04-07T22:25:57.874Z,18.40
2019-04-07T22:28:28.494Z,18.40
2019-04-07T22:30:59.162Z,18.30
2019-04-07T22:33:31.484Z,18.30
2019-04-07T22:36:00.244Z,18.30
2019-04-07T22:38:31.520Z,18.30
2019-04-07T22:41:01.095Z,18.30
2019-04-07T22:43:30.503Z,18.30
2019-04-07T22:46:07.709Z,18.40
2019-04-07T22:48:31.087Z,18.30
2019-04-07T22:51:02.832Z,18.30
2019-04-07T22:53:31.734Z,18.30
2019-04-07T22:56:04.789Z,18.30
2019-04-07T22:58:32.247Z,18.30
2019-04-07T23:01:02.683Z,18.30
2019-04-07T23:03:32.503Z,18.30
2019-04-07T23:06:02.010Z,18.30
2019-04-07T23:08:31.406Z,18.30
2019-04-07T23:11:15.047Z,18.30
2019-04-07T23:13:45.134Z,18.20
2019-04-07T23:16:17.183Z,18.20
2019-04-07T23:18:46.495Z,18.20
2019-04-07T23:21:17.157Z,18.20
2019-04-07T23:23:46.787Z,18.20
2019-04-07T23:26:16.193Z,18.20
2019-04-07T23:28:47.218Z,18.20
2019-04-07T23:31:16.989Z,18.20
2019-04-07T23:33:46.450Z,18.20
2019-04-07T23:36:15.967Z,18.10
2019-04-07T23:38:45.393Z,18.10
2019-04-07T23:41:15.911Z,18.10
2019-04-07T23:43:45.977Z,18.00
2019-04-07T23:46:22.873Z,18.00
2019-04-07T23:48:47.728Z,18.00
2019-04-07T23:51:17.111Z,18.00
2019-04-07T23:54:11.329Z,18.00
2019-04-07T23:56:41.895Z,18.00
2019-04-07T23:59:12.129Z,18.00
